createdAt,value
2019-03-29T00:01:41.175Z,35.05
2019-03-29T00:04:09.945Z,33.15
2019-03-29T00:06:39.094Z,33.25
2019-03-29T00:09:08.166Z,31.93
2019-03-29T00:11:36.943Z,32.67
2019-03-29T00:14:06.087Z,30.50
2019-03-29T00:16:34.898Z,30.52
2019-03-29T00:19:03.746Z,33.13
2019-03-29T00:21:32.799Z,31.65
2019-03-29T00:24:07.087Z,33.80
2019-03-29T00:26:32.127Z,34.00
2019-03-29T00:29:00.897Z,33.65
2019-03-29T00:31:29.977Z,30.02
2019-03-29T00:33:58.849Z,29.98
2019-03-29T00:36:27.627Z,31.60
2019-03-29T00:38:56.439Z,30.43
2019-03-29T00:41:25.331Z,31.83
2019-03-29T00:43:54.182Z,28.50
2019-03-29T00:46:23.050Z,27.25
2019-03-29T00:48:51.822Z,29.87
2019-03-29T00:51:20.590Z,30.32
2019-03-29T00:53:49.400Z,30.92
2019-03-29T00:56:18.239Z,32.50
2019-03-29T00:58:47.015Z,33.40
2019-03-29T01:01:15.905Z,32.17
2019-03-29T01:03:44.938Z,32.13
2019-03-29T01:06:13.714Z,28.83
2019-03-29T01:08:42.508Z,25.62
2019-03-29T01:11:11.348Z,27.55
2019-03-29T01:13:40.126Z,29.25
2019-03-29T01:16:09.305Z,29.18
2019-03-29T01:18:38.324Z,30.80
2019-03-29T01:21:07.793Z,31.52
2019-03-29T01:23:36.628Z,32.13
2019-03-29T01:26:06.153Z,36.34
2019-03-29T01:28:34.921Z,36.48
2019-03-29T01:31:03.728Z,37.20
2019-03-29T01:33:32.504Z,40.25
2019-03-29T01:36:02.037Z,40.98
2019-03-29T01:38:31.028Z,43.08
2019-03-29T01:41:00.997Z,37.23
2019-03-29T01:43:29.911Z,39.10
2019-03-29T01:45:58.714Z,35.50
2019-03-29T01:48:27.567Z,37.05
2019-03-29T01:50:56.405Z,37.30
2019-03-29T01:53:25.565Z,38.83
2019-03-29T01:55:54.411Z,37.90
2019-03-29T01:58:23.175Z,39.30
2019-03-29T02:00:51.974Z,38.45
2019-03-29T02:03:20.826Z,39.48
2019-03-29T02:05:49.596Z,39.00
2019-03-29T02:08:18.701Z,39.08
2019-03-29T02:10:48.915Z,41.45
2019-03-29T02:13:17.925Z,37.05
2019-03-29T02:15:47.209Z,37.20
2019-03-29T02:18:17.476Z,33.23
2019-03-29T02:20:46.546Z,35.38
2019-03-29T02:23:15.335Z,36.10
2019-03-29T02:25:44.436Z,34.75
2019-03-29T02:28:13.196Z,33.35
2019-03-29T02:30:42.317Z,34.30
2019-03-29T02:33:11.098Z,37.83
2019-03-29T02:35:39.860Z,37.75
2019-03-29T02:38:09.002Z,34.67
2019-03-29T02:40:37.857Z,32.20
2019-03-29T02:43:06.985Z,32.00
2019-03-29T02:45:36.197Z,31.02
2019-03-29T02:48:05.039Z,34.50
2019-03-29T02:50:33.864Z,31.60
2019-03-29T02:53:02.751Z,32.00
2019-03-29T02:55:31.960Z,31.55
2019-03-29T02:58:00.721Z,32.95
2019-03-29T03:00:29.527Z,31.60
2019-03-29T03:02:58.372Z,32.45
2019-03-29T03:05:27.226Z,30.95
2019-03-29T03:07:56.317Z,31.75
2019-03-29T03:10:25.104Z,30.50
2019-03-29T03:12:53.881Z,31.12
2019-03-29T03:15:22.670Z,28.50
2019-03-29T03:17:51.793Z,29.75
2019-03-29T03:20:20.636Z,30.25
2019-03-29T03:22:49.520Z,28.90
2019-03-29T03:25:18.365Z,30.92
2019-03-29T03:27:47.141Z,32.90
2019-03-29T03:30:15.970Z,33.80
2019-03-29T03:32:44.761Z,27.67
2019-03-29T03:35:13.597Z,31.65
2019-03-29T03:37:42.471Z,30.40
2019-03-29T03:40:11.604Z,30.95
2019-03-29T03:42:40.375Z,33.88
2019-03-29T03:45:09.228Z,33.83
2019-03-29T03:47:39.619Z,31.48
2019-03-29T03:50:14.651Z,31.85
2019-03-29T03:52:43.431Z,30.85
2019-03-29T03:55:12.636Z,30.62
2019-03-29T03:57:41.441Z,31.48
2019-03-29T04:00:10.209Z,31.82
2019-03-29T04:02:38.982Z,29.60
2019-03-29T04:05:07.801Z,30.00
2019-03-29T04:07:36.576Z,31.57
2019-03-29T04:10:08.033Z,30.92
2019-03-29T04:12:37.146Z,29.75
2019-03-29T04:15:06.494Z,32.00
2019-03-29T04:17:35.339Z,31.23
2019-03-29T04:20:05.766Z,31.57
2019-03-29T04:22:34.860Z,32.23
2019-03-29T04:25:05.540Z,33.67
2019-03-29T04:27:34.357Z,33.67
2019-03-29T04:30:03.791Z,35.88
2019-03-29T04:32:32.884Z,37.28
2019-03-29T04:35:01.766Z,39.08
2019-03-29T04:37:30.545Z,39.35
2019-03-29T04:40:07.592Z,41.48
2019-03-29T04:42:29.866Z,45.73
2019-03-29T04:45:00.006Z,50.00
2019-03-29T04:47:29.423Z,47.75
2019-03-29T04:49:58.226Z,39.63
2019-03-29T04:52:27.002Z,36.30
2019-03-29T04:54:55.778Z,38.02
2019-03-29T04:57:24.573Z,36.35
2019-03-29T04:59:53.665Z,40.20
2019-03-29T05:02:22.434Z,35.63
2019-03-29T05:04:51.253Z,41.02
2019-03-29T05:07:20.449Z,39.25
2019-03-29T05:09:49.229Z,37.70
2019-03-29T05:12:18.022Z,37.20
2019-03-29T05:14:46.856Z,39.55
2019-03-29T05:17:15.624Z,34.23
2019-03-29T05:19:44.717Z,36.17
2019-03-29T05:22:13.770Z,33.02
2019-03-29T05:24:42.895Z,35.15
2019-03-29T05:27:11.813Z,35.45
2019-03-29T05:29:40.597Z,32.95
2019-03-29T05:32:09.477Z,32.08
2019-03-29T05:34:38.362Z,34.67
2019-03-29T05:37:07.140Z,35.15
2019-03-29T05:39:35.917Z,34.78
2019-03-29T05:42:04.818Z,35.60
2019-03-29T05:44:33.652Z,37.70
2019-03-29T05:47:02.453Z,36.85
2019-03-29T05:49:31.335Z,36.85
2019-03-29T05:52:00.232Z,33.15
2019-03-29T05:54:29.074Z,37.90
2019-03-29T05:56:57.914Z,39.60
2019-03-29T05:59:26.687Z,41.02
2019-03-29T06:01:55.457Z,38.33
2019-03-29T06:04:24.253Z,39.27
2019-03-29T06:06:53.453Z,39.67
2019-03-29T06:09:22.546Z,38.10
2019-03-29T06:11:51.339Z,38.33
2019-03-29T06:14:20.102Z,37.38
2019-03-29T06:16:48.863Z,38.80
2019-03-29T06:19:18.002Z,37.53
2019-03-29T06:21:46.761Z,35.70
2019-03-29T06:24:15.529Z,32.95
2019-03-29T06:26:44.344Z,35.17
2019-03-29T06:29:13.199Z,36.08
2019-03-29T06:31:42.033Z,36.17
2019-03-29T06:34:10.915Z,36.73
2019-03-29T06:36:39.685Z,38.02
2019-03-29T06:39:08.738Z,37.08
2019-03-29T06:41:37.604Z,34.08
2019-03-29T06:44:06.731Z,31.40
2019-03-29T06:46:35.585Z,32.67
2019-03-29T06:49:04.478Z,30.02
2019-03-29T06:51:33.616Z,29.07
2019-03-29T06:54:02.390Z,29.02
2019-03-29T06:56:31.295Z,28.50
2019-03-29T06:59:00.391Z,27.77
2019-03-29T07:01:29.213Z,27.15
2019-03-29T07:03:58.381Z,25.82
2019-03-29T07:06:30.362Z,26.52
2019-03-29T07:08:57.675Z,28.52
2019-03-29T07:11:26.550Z,29.40
2019-03-29T07:13:57.822Z,29.02
2019-03-29T07:16:25.807Z,29.37
2019-03-29T07:18:54.617Z,31.00
2019-03-29T07:21:23.689Z,34.93
2019-03-29T07:23:52.491Z,35.95
2019-03-29T07:26:21.388Z,36.85
2019-03-29T07:28:50.482Z,32.00
2019-03-29T07:31:19.255Z,32.17
2019-03-29T07:33:48.056Z,31.85
2019-03-29T07:36:16.852Z,32.20
2019-03-29T07:38:45.638Z,32.88
2019-03-29T07:41:14.520Z,34.53
2019-03-29T07:43:43.300Z,36.48
2019-03-29T07:46:12.139Z,37.73
2019-03-29T07:48:40.951Z,38.42
2019-03-29T07:51:09.748Z,39.85
2019-03-29T07:53:38.600Z,40.70
2019-03-29T07:56:07.399Z,42.00
2019-03-29T07:58:36.185Z,39.92
2019-03-29T08:01:04.971Z,42.60
2019-03-29T08:03:33.769Z,40.12
2019-03-29T08:06:02.546Z,42.27
2019-03-29T08:08:33.371Z,41.77
2019-03-29T08:11:01.814Z,42.23
2019-03-29T08:13:30.670Z,41.68
2019-03-29T08:15:59.529Z,41.77
2019-03-29T08:18:28.320Z,43.30
2019-03-29T08:20:57.095Z,42.85
2019-03-29T08:23:28.617Z,43.80
2019-03-29T08:25:56.393Z,44.53
2019-03-29T08:28:25.176Z,44.77
2019-03-29T08:30:54.026Z,43.75
2019-03-29T08:33:22.862Z,44.23
2019-03-29T08:35:51.712Z,43.02
2019-03-29T08:38:20.504Z,44.33
2019-03-29T08:40:49.382Z,44.18
2019-03-29T08:43:18.178Z,43.70
2019-03-29T08:45:47.014Z,43.78
2019-03-29T08:48:15.818Z,46.37
2019-03-29T08:50:44.666Z,42.05
2019-03-29T08:53:13.426Z,40.80
2019-03-29T08:55:45.959Z,39.92
2019-03-29T08:58:13.118Z,38.02
2019-03-29T09:00:41.897Z,38.35
2019-03-29T09:03:11.052Z,36.70
2019-03-29T09:05:40.642Z,33.30
2019-03-29T09:08:09.484Z,32.48
2019-03-29T09:10:38.341Z,33.05
2019-03-29T09:13:07.427Z,32.58
2019-03-29T09:15:36.210Z,30.85
2019-03-29T09:18:05.011Z,29.77
2019-03-29T09:20:34.629Z,26.97
2019-03-29T09:23:03.730Z,28.50
2019-03-29T09:25:32.624Z,29.65
2019-03-29T09:28:01.488Z,28.85
2019-03-29T09:30:30.348Z,28.62
2019-03-29T09:32:59.218Z,27.75
2019-03-29T09:35:28.013Z,27.67
2019-03-29T09:37:56.908Z,28.85
2019-03-29T09:40:25.770Z,27.15
2019-03-29T09:43:06.675Z,27.87
2019-03-29T09:45:25.086Z,27.90
2019-03-29T09:47:55.937Z,27.32
2019-03-29T09:50:24.668Z,28.07
2019-03-29T09:52:53.504Z,26.48
2019-03-29T09:55:22.326Z,26.90
2019-03-29T09:57:51.178Z,24.40
2019-03-29T10:00:23.317Z,26.60
2019-03-29T10:02:50.520Z,25.60
2019-03-29T10:05:20.185Z,26.20
2019-03-29T10:07:49.695Z,26.50
2019-03-29T10:10:18.509Z,25.60
2019-03-29T10:12:47.383Z,27.02
2019-03-29T10:15:16.164Z,25.95
2019-03-29T10:17:45.059Z,24.47
2019-03-29T10:20:13.858Z,24.67
2019-03-29T10:22:42.708Z,25.08
2019-03-29T10:25:19.034Z,24.43
2019-03-29T10:27:42.086Z,22.70
2019-03-29T10:30:10.929Z,19.27
2019-03-29T10:32:39.794Z,19.40
2019-03-29T10:35:08.596Z,19.60
2019-03-29T10:37:38.130Z,18.62
2019-03-29T10:40:07.004Z,18.35
2019-03-29T10:42:35.804Z,16.93
2019-03-29T10:45:05.152Z,17.80
2019-03-29T10:47:43.209Z,13.70
2019-03-29T10:50:05.933Z,11.25
2019-03-29T10:52:34.776Z,9.33
2019-03-29T10:55:04.138Z,9.30
2019-03-29T10:57:32.921Z,12.28
2019-03-29T11:00:01.709Z,10.90
2019-03-29T11:02:30.523Z,13.75
2019-03-29T11:04:59.297Z,14.15
2019-03-29T11:07:28.552Z,12.95
2019-03-29T11:09:57.432Z,13.35
2019-03-29T11:12:26.552Z,13.38
2019-03-29T11:14:55.348Z,12.95
2019-03-29T11:17:24.161Z,13.25
2019-03-29T11:19:52.950Z,12.00
2019-03-29T11:22:21.723Z,8.23
2019-03-29T11:24:50.533Z,11.20
2019-03-29T11:27:22.303Z,10.75
2019-03-29T11:29:49.798Z,10.35
2019-03-29T11:32:18.631Z,9.93
2019-03-29T11:34:47.399Z,10.38
2019-03-29T11:37:16.186Z,10.23
2019-03-29T11:39:44.997Z,10.55
2019-03-29T11:42:13.795Z,9.73
2019-03-29T11:44:42.642Z,9.28
2019-03-29T11:47:11.512Z,9.95
2019-03-29T11:49:40.664Z,10.08
2019-03-29T11:52:09.504Z,9.10
2019-03-29T11:54:38.583Z,8.80
2019-03-29T11:57:07.430Z,8.90
2019-03-29T11:59:36.218Z,8.95
2019-03-29T12:02:05.103Z,9.38
2019-03-29T12:04:33.885Z,10.13
2019-03-29T12:07:03.638Z,9.78
2019-03-29T12:09:34.474Z,11.22
2019-03-29T12:12:03.319Z,11.60
2019-03-29T12:14:32.180Z,10.88
2019-03-29T12:17:01.061Z,11.10
2019-03-29T12:19:29.829Z,10.30
2019-03-29T12:21:58.611Z,11.33
2019-03-29T12:24:27.423Z,10.18
2019-03-29T12:26:56.384Z,18.45
2019-03-29T12:29:25.229Z,9.95
2019-03-29T12:31:54.025Z,9.35
2019-03-29T12:34:22.886Z,9.15
2019-03-29T12:36:51.668Z,8.75
2019-03-29T12:39:20.455Z,8.43
2019-03-29T12:41:49.232Z,8.25
2019-03-29T12:44:18.016Z,8.65
2019-03-29T12:46:46.825Z,7.58
2019-03-29T12:49:15.610Z,7.03
2019-03-29T12:51:46.616Z,6.80
2019-03-29T12:54:14.946Z,6.45
2019-03-29T12:56:43.728Z,8.53
2019-03-29T12:59:12.585Z,8.88
2019-03-29T13:01:41.455Z,8.58
2019-03-29T13:04:10.304Z,8.85
2019-03-29T13:06:39.158Z,8.65
2019-03-29T13:09:07.990Z,8.80
2019-03-29T13:11:36.906Z,8.98
2019-03-29T13:14:10.402Z,9.65
2019-03-29T13:16:36.220Z,9.48
2019-03-29T13:19:05.082Z,8.80
2019-03-29T13:21:33.930Z,8.93
2019-03-29T13:24:02.757Z,9.98
2019-03-29T13:26:31.599Z,10.10
2019-03-29T13:29:00.361Z,9.33
2019-03-29T13:31:29.177Z,9.60
2019-03-29T13:33:58.012Z,9.73
2019-03-29T13:36:26.792Z,8.25
2019-03-29T13:38:55.605Z,8.25
2019-03-29T13:41:24.379Z,8.87
2019-03-29T13:43:53.158Z,8.68
2019-03-29T13:46:21.947Z,9.67
2019-03-29T13:48:50.734Z,9.80
2019-03-29T13:51:19.591Z,9.63
2019-03-29T13:53:48.392Z,9.83
2019-03-29T13:56:17.543Z,9.33
2019-03-29T13:58:46.325Z,10.55
2019-03-29T14:01:15.436Z,10.90
2019-03-29T14:03:44.298Z,10.53
2019-03-29T14:06:13.493Z,10.60
2019-03-29T14:08:42.352Z,10.82
2019-03-29T14:11:11.213Z,9.93
2019-03-29T14:13:40.055Z,10.53
2019-03-29T14:16:09.181Z,11.15
2019-03-29T14:18:37.949Z,10.40
2019-03-29T14:21:06.737Z,9.63
2019-03-29T14:23:35.601Z,10.25
2019-03-29T14:26:04.649Z,10.28
2019-03-29T14:28:33.442Z,10.65
2019-03-29T14:31:02.260Z,10.90
2019-03-29T14:33:33.923Z,9.90
2019-03-29T14:36:02.707Z,10.30
2019-03-29T14:38:31.902Z,10.43
2019-03-29T14:41:00.676Z,11.53
2019-03-29T14:43:29.463Z,11.60
2019-03-29T14:45:58.261Z,10.20
2019-03-29T14:48:27.048Z,10.35
2019-03-29T14:50:55.884Z,10.70
2019-03-29T14:53:25.019Z,10.70
2019-03-29T14:55:53.810Z,10.93
2019-03-29T14:58:22.581Z,11.20
2019-03-29T15:00:51.658Z,10.98
2019-03-29T15:03:20.428Z,10.72
2019-03-29T15:05:49.242Z,10.48
2019-03-29T15:08:18.113Z,10.85
2019-03-29T15:10:46.902Z,10.23
2019-03-29T15:13:15.758Z,10.80
2019-03-29T15:15:44.626Z,9.78
2019-03-29T15:18:13.418Z,10.40
2019-03-29T15:20:53.305Z,10.08
2019-03-29T15:23:13.025Z,10.18
2019-03-29T15:25:41.795Z,11.15
2019-03-29T15:28:10.938Z,10.70
2019-03-29T15:30:39.734Z,10.95
2019-03-29T15:33:08.837Z,11.28
2019-03-29T15:35:37.658Z,11.20
2019-03-29T15:38:06.509Z,11.22
2019-03-29T15:40:36.571Z,12.55
2019-03-29T15:43:05.371Z,11.97
2019-03-29T15:45:34.202Z,11.90
2019-03-29T15:48:02.987Z,12.85
2019-03-29T15:50:31.841Z,11.80
2019-03-29T15:53:00.648Z,12.15
2019-03-29T15:55:29.418Z,12.23
2019-03-29T15:57:58.203Z,12.75
2019-03-29T16:00:27.027Z,13.40
2019-03-29T16:02:56.158Z,13.45
2019-03-29T16:05:24.935Z,13.50
2019-03-29T16:07:53.743Z,14.13
2019-03-29T16:10:22.518Z,13.40
2019-03-29T16:12:51.360Z,12.23
2019-03-29T16:15:33.270Z,11.95
2019-03-29T16:17:50.948Z,9.90
2019-03-29T16:20:19.740Z,9.63
2019-03-29T16:22:48.632Z,9.58
2019-03-29T16:25:17.403Z,9.43
2019-03-29T16:27:46.183Z,8.93
2019-03-29T16:30:15.004Z,8.78
2019-03-29T16:32:43.843Z,8.33
2019-03-29T16:35:12.623Z,7.90
2019-03-29T16:37:41.408Z,7.00
2019-03-29T16:40:10.176Z,6.72
2019-03-29T16:42:38.958Z,6.83
2019-03-29T16:45:07.828Z,5.60
2019-03-29T16:47:36.619Z,5.90
2019-03-29T16:50:07.046Z,6.60
2019-03-29T16:52:35.862Z,6.10
2019-03-29T16:55:13.058Z,7.15
2019-03-29T16:57:36.945Z,6.45
2019-03-29T17:00:12.118Z,6.17
2019-03-29T17:02:39.606Z,6.55
2019-03-29T17:05:08.448Z,6.33
2019-03-29T17:07:37.264Z,5.87
2019-03-29T17:10:06.634Z,6.40
2019-03-29T17:12:35.419Z,6.40
2019-03-29T17:15:04.764Z,6.42
2019-03-29T17:17:33.711Z,6.20
2019-03-29T17:20:02.553Z,6.65
2019-03-29T17:22:31.384Z,5.85
2019-03-29T17:25:00.357Z,5.95
2019-03-29T17:27:29.364Z,6.60
2019-03-29T17:29:58.438Z,6.45
2019-03-29T17:32:27.964Z,7.05
2019-03-29T17:34:56.801Z,6.78
2019-03-29T17:37:25.608Z,6.40
2019-03-29T17:39:54.446Z,6.70
2019-03-29T17:42:23.221Z,6.42
2019-03-29T17:44:52.009Z,6.30
2019-03-29T17:47:20.775Z,6.25
2019-03-29T17:49:50.195Z,6.67
2019-03-29T17:52:19.069Z,6.95
2019-03-29T17:54:47.860Z,7.40
2019-03-29T17:57:16.636Z,7.25
2019-03-29T17:59:45.500Z,7.72
2019-03-29T18:02:14.341Z,7.37
2019-03-29T18:04:43.172Z,7.15
2019-03-29T18:07:11.962Z,7.53
2019-03-29T18:09:40.761Z,7.28
2019-03-29T18:12:11.324Z,7.95
2019-03-29T18:14:40.125Z,7.45
2019-03-29T18:17:08.912Z,6.78
2019-03-29T18:19:37.836Z,7.10
2019-03-29T18:22:06.746Z,8.08
2019-03-29T18:24:35.535Z,7.97
2019-03-29T18:27:04.318Z,8.15
2019-03-29T18:29:33.189Z,7.22
2019-03-29T18:32:02.059Z,7.62
2019-03-29T18:34:30.882Z,7.45
2019-03-29T18:36:59.741Z,7.35
2019-03-29T18:39:28.562Z,7.55
2019-03-29T18:41:57.652Z,7.65
2019-03-29T18:44:26.442Z,7.08
2019-03-29T18:46:55.229Z,7.25
2019-03-29T18:49:24.010Z,6.87
2019-03-29T18:51:52.884Z,6.28
2019-03-29T18:54:21.672Z,6.50
2019-03-29T18:56:50.506Z,6.72
2019-03-29T18:59:19.348Z,6.22
2019-03-29T19:01:48.194Z,6.17
2019-03-29T19:04:16.970Z,7.22
2019-03-29T19:06:45.766Z,7.90
2019-03-29T19:09:14.554Z,7.67
2019-03-29T19:11:43.348Z,6.55
2019-03-29T19:14:12.221Z,7.62
2019-03-29T19:16:40.990Z,7.75
2019-03-29T19:19:10.662Z,7.67
2019-03-29T19:21:39.666Z,9.33
2019-03-29T19:24:08.512Z,8.30
2019-03-29T19:26:37.270Z,8.00
2019-03-29T19:29:06.073Z,7.80
2019-03-29T19:31:34.868Z,7.90
2019-03-29T19:34:03.703Z,7.37
2019-03-29T19:36:32.579Z,6.60
2019-03-29T19:39:01.349Z,7.25
2019-03-29T19:41:30.119Z,7.83
2019-03-29T19:43:59.248Z,7.45
2019-03-29T19:46:28.087Z,7.08
2019-03-29T19:48:56.847Z,7.37
2019-03-29T19:51:25.652Z,7.57
2019-03-29T19:54:06.814Z,7.12
2019-03-29T19:56:24.886Z,7.37
2019-03-29T19:58:54.075Z,7.87
2019-03-29T20:01:22.895Z,8.20
2019-03-29T20:03:51.735Z,7.58
2019-03-29T20:06:20.638Z,7.53
2019-03-29T20:08:49.388Z,7.12
2019-03-29T20:11:18.163Z,8.23
2019-03-29T20:13:46.984Z,9.03
2019-03-29T20:16:15.762Z,8.83
2019-03-29T20:18:44.543Z,7.78
2019-03-29T20:21:14.986Z,7.37
2019-03-29T20:23:43.766Z,8.25
2019-03-29T20:26:12.560Z,7.53
2019-03-29T20:28:41.446Z,7.87
2019-03-29T20:31:10.649Z,8.88
2019-03-29T20:33:39.427Z,8.63
2019-03-29T20:36:08.546Z,9.75
2019-03-29T20:38:37.386Z,8.83
2019-03-29T20:41:07.081Z,9.05
2019-03-29T20:43:35.958Z,9.73
2019-03-29T20:46:04.804Z,9.15
2019-03-29T20:48:33.649Z,9.33
2019-03-29T20:51:02.444Z,9.48
2019-03-29T20:53:31.294Z,8.25
2019-03-29T20:56:00.085Z,8.35
2019-03-29T20:58:28.971Z,8.20
2019-03-29T21:00:57.797Z,8.38
2019-03-29T21:03:26.647Z,8.30
2019-03-29T21:05:55.790Z,8.10
2019-03-29T21:08:24.583Z,8.28
2019-03-29T21:10:56.086Z,8.45
2019-03-29T21:13:23.928Z,7.70
2019-03-29T21:15:52.692Z,8.55
2019-03-29T21:18:21.471Z,9.05
2019-03-29T21:20:50.262Z,8.68
2019-03-29T21:23:19.021Z,8.93
2019-03-29T21:25:47.785Z,8.55
2019-03-29T21:28:16.588Z,9.43
2019-03-29T21:30:45.613Z,9.38
2019-03-29T21:33:14.688Z,8.33
2019-03-29T21:35:43.489Z,8.80
2019-03-29T21:38:12.259Z,8.50
2019-03-29T21:40:41.036Z,7.78
2019-03-29T21:43:10.260Z,7.83
2019-03-29T21:45:39.033Z,8.10
2019-03-29T21:48:27.363Z,7.85
2019-03-29T21:50:38.312Z,8.43
2019-03-29T21:53:07.172Z,8.33
2019-03-29T21:55:35.947Z,8.40
2019-03-29T21:58:04.818Z,7.65
2019-03-29T22:00:33.606Z,8.63
2019-03-29T22:03:02.379Z,8.78
2019-03-29T22:05:31.195Z,10.40
2019-03-29T22:08:00.045Z,11.10
2019-03-29T22:10:28.826Z,10.38
2019-03-29T22:12:57.626Z,10.40
2019-03-29T22:15:26.398Z,11.05
2019-03-29T22:17:55.482Z,10.63
2019-03-29T22:20:24.679Z,10.10
2019-03-29T22:22:53.640Z,10.55
2019-03-29T22:25:22.508Z,10.48
2019-03-29T22:27:51.296Z,11.28
2019-03-29T22:30:20.147Z,10.72
2019-03-29T22:32:49.007Z,10.35
2019-03-29T22:35:18.086Z,10.10
2019-03-29T22:37:47.265Z,10.23
2019-03-29T22:40:16.767Z,10.15
2019-03-29T22:42:45.570Z,11.33
2019-03-29T22:45:14.357Z,10.03
2019-03-29T22:47:43.205Z,12.70
2019-03-29T22:50:12.018Z,12.25
2019-03-29T22:52:40.794Z,11.55
2019-03-29T22:55:09.730Z,10.63
2019-03-29T22:57:38.886Z,10.82
2019-03-29T23:00:16.732Z,10.28
2019-03-29T23:02:45.535Z,10.32
2019-03-29T23:05:14.329Z,10.85
2019-03-29T23:07:43.120Z,9.43
2019-03-29T23:10:11.999Z,10.23
2019-03-29T23:12:40.762Z,9.58
2019-03-29T23:15:09.824Z,11.20
2019-03-29T23:17:38.630Z,9.80
2019-03-29T23:20:07.401Z,9.18
2019-03-29T23:22:36.510Z,9.08
2019-03-29T23:25:05.537Z,9.93
2019-03-29T23:27:34.736Z,9.60
2019-03-29T23:30:04.473Z,10.00
2019-03-29T23:32:33.270Z,9.38
2019-03-29T23:35:02.058Z,9.13
2019-03-29T23:37:32.530Z,9.80
2019-03-29T23:40:01.396Z,9.95
2019-03-29T23:42:30.163Z,9.95
2019-03-29T23:44:58.915Z,9.73
2019-03-29T23:47:27.716Z,9.43
2019-03-29T23:49:56.487Z,10.28
2019-03-29T23:52:25.265Z,10.50
2019-03-29T23:54:54.079Z,10.80
2019-03-29T23:57:22.921Z,14.05
2019-03-29T23:59:51.681Z,11.40
